sensor_id;sensor_type;location;lat;lon;timestamp;pressure;altitude;pressure_sealevel;temperature;humidity
46944;BME280;32678;43.852;25.952;2023-01-30T00:02:56;101630.69;;;2.44;86.91
46944;BME280;32678;43.852;25.952;2023-01-30T00:07:52;101640.25;;;2.51;86.23
46944;BME280;32678;43.852;25.952;2023-01-30T00:12:50;101634.19;;;2.47;86.72
46944;BME280;32678;43.852;25.952;2023-01-30T00:17:46;101633.28;;;2.44;86.68
46944;BME280;32678;43.852;25.952;2023-01-30T00:22:43;101632.59;;;2.57;86.26
46944;BME280;32678;43.852;25.952;2023-01-30T00:27:58;101626.50;;;2.55;85.80
46944;BME280;32678;43.852;25.952;2023-01-30T00:32:54;101627.19;;;2.42;86.51
46944;BME280;32678;43.852;25.952;2023-01-30T00:37:53;101623.91;;;2.52;86.53
46944;BME280;32678;43.852;25.952;2023-01-30T00:42:50;101617.00;;;2.52;86.54
46944;BME280;32678;43.852;25.952;2023-01-30T00:48:05;101613.47;;;2.47;86.35
46944;BME280;32678;43.852;25.952;2023-01-30T00:53:02;101618.75;;;2.55;86.13
46944;BME280;32678;43.852;25.952;2023-01-30T00:57:59;101607.59;;;2.59;85.78
46944;BME280;32678;43.852;25.952;2023-01-30T01:02:56;101599.75;;;2.53;86.19
46944;BME280;32678;43.852;25.952;2023-01-30T01:07:54;101590.22;;;2.50;85.27
46944;BME280;32678;43.852;25.952;2023-01-30T01:12:52;101586.00;;;2.57;85.16
46944;BME280;32678;43.852;25.952;2023-01-30T01:17:49;101586.94;;;2.62;85.12
46944;BME280;32678;43.852;25.952;2023-01-30T01:22:46;101585.97;;;2.55;84.94
46944;BME280;32678;43.852;25.952;2023-01-30T01:27:46;101581.84;;;2.68;84.99
46944;BME280;32678;43.852;25.952;2023-01-30T01:32:45;101574.94;;;2.70;84.89
46944;BME280;32678;43.852;25.952;2023-01-30T01:37:41;101567.28;;;2.81;84.42
46944;BME280;32678;43.852;25.952;2023-01-30T01:42:38;101567.50;;;2.97;84.19
46944;BME280;32678;43.852;25.952;2023-01-30T01:47:36;101571.81;;;2.98;83.89
46944;BME280;32678;43.852;25.952;2023-01-30T01:52:35;101559.91;;;3.16;83.45
46944;BME280;32678;43.852;25.952;2023-01-30T01:57:32;101555.53;;;3.10;83.08
46944;BME280;32678;43.852;25.952;2023-01-30T02:02:30;101557.31;;;3.13;83.48
46944;BME280;32678;43.852;25.952;2023-01-30T02:07:30;101551.28;;;3.18;83.44
46944;BME280;32678;43.852;25.952;2023-01-30T02:12:30;101544.47;;;3.29;82.94
46944;BME280;32678;43.852;25.952;2023-01-30T02:17:26;101546.25;;;3.32;83.29
46944;BME280;32678;43.852;25.952;2023-01-30T02:27:44;101534.72;;;3.01;84.04
46944;BME280;32678;43.852;25.952;2023-01-30T02:32:49;101531.94;;;2.83;86.01
46944;BME280;32678;43.852;25.952;2023-01-30T02:37:57;101532.84;;;2.86;87.06
46944;BME280;32678;43.852;25.952;2023-01-30T02:43:01;101528.69;;;3.03;87.13
46944;BME280;32678;43.852;25.952;2023-01-30T02:48:02;101531.94;;;2.84;88.02
46944;BME280;32678;43.852;25.952;2023-01-30T02:52:59;101532.59;;;2.64;89.42
46944;BME280;32678;43.852;25.952;2023-01-30T02:57:56;101527.63;;;2.85;89.27
46944;BME280;32678;43.852;25.952;2023-01-30T03:02:56;101533.44;;;2.63;89.35
46944;BME280;32678;43.852;25.952;2023-01-30T03:08:06;101529.81;;;2.50;89.83
46944;BME280;32678;43.852;25.952;2023-01-30T03:13:09;101534.63;;;2.21;91.75
46944;BME280;32678;43.852;25.952;2023-01-30T03:18:08;101540.78;;;2.31;92.76
46944;BME280;32678;43.852;25.952;2023-01-30T03:23:07;101532.00;;;2.18;93.23
46944;BME280;32678;43.852;25.952;2023-01-30T03:28:04;101527.34;;;2.57;93.51
46944;BME280;32678;43.852;25.952;2023-01-30T03:33:02;101506.00;;;2.78;92.54
46944;BME280;32678;43.852;25.952;2023-01-30T03:37:58;101522.69;;;3.09;91.96
46944;BME280;32678;43.852;25.952;2023-01-30T03:42:56;101521.94;;;3.21;90.89
46944;BME280;32678;43.852;25.952;2023-01-30T03:47:53;101521.25;;;3.38;90.54
46944;BME280;32678;43.852;25.952;2023-01-30T03:52:50;101522.81;;;3.21;88.38
46944;BME280;32678;43.852;25.952;2023-01-30T03:57:49;101515.81;;;3.11;88.64
46944;BME280;32678;43.852;25.952;2023-01-30T04:02:50;101510.00;;;3.36;88.65
46944;BME280;32678;43.852;25.952;2023-01-30T04:07:49;101507.44;;;3.39;88.06
46944;BME280;32678;43.852;25.952;2023-01-30T04:12:47;101499.41;;;3.11;87.42
46944;BME280;32678;43.852;25.952;2023-01-30T04:17:45;101491.25;;;2.73;88.34
46944;BME280;32678;43.852;25.952;2023-01-30T04:22:52;101496.13;;;2.47;89.59
46944;BME280;32678;43.852;25.952;2023-01-30T04:27:49;101493.69;;;2.57;90.07
46944;BME280;32678;43.852;25.952;2023-01-30T04:32:49;101492.84;;;2.61;90.26
46944;BME280;32678;43.852;25.952;2023-01-30T04:37:48;101492.00;;;2.64;89.94
46944;BME280;32678;43.852;25.952;2023-01-30T04:42:49;101496.25;;;2.57;89.82
46944;BME280;32678;43.852;25.952;2023-01-30T04:48:06;101497.50;;;2.91;88.89
46944;BME280;32678;43.852;25.952;2023-01-30T04:53:03;101505.00;;;2.67;89.04
46944;BME280;32678;43.852;25.952;2023-01-30T04:58:01;101496.16;;;2.48;90.14
46944;BME280;32678;43.852;25.952;2023-01-30T05:02:58;101497.19;;;2.64;89.45
46944;BME280;32678;43.852;25.952;2023-01-30T05:07:55;101494.31;;;2.38;90.56
46944;BME280;32678;43.852;25.952;2023-01-30T05:12:54;101491.84;;;2.50;90.35
46944;BME280;32678;43.852;25.952;2023-01-30T05:17:51;101496.94;;;2.41;90.50
46944;BME280;32678;43.852;25.952;2023-01-30T05:22:47;101498.44;;;2.23;91.17
46944;BME280;32678;43.852;25.952;2023-01-30T05:27:44;101499.75;;;1.93;92.24
46944;BME280;32678;43.852;25.952;2023-01-30T05:32:41;101496.34;;;1.97;92.74
46944;BME280;32678;43.852;25.952;2023-01-30T05:37:38;101497.19;;;1.95;93.20
46944;BME280;32678;43.852;25.952;2023-01-30T05:42:36;101493.06;;;2.10;91.78
46944;BME280;32678;43.852;25.952;2023-01-30T05:47:33;101500.94;;;2.16;91.67
46944;BME280;32678;43.852;25.952;2023-01-30T05:52:30;101499.84;;;1.99;92.95
46944;BME280;32678;43.852;25.952;2023-01-30T05:57:29;101499.19;;;2.15;92.63
46944;BME280;32678;43.852;25.952;2023-01-30T06:02:26;101501.13;;;2.32;91.41
46944;BME280;32678;43.852;25.952;2023-01-30T06:07:23;101495.09;;;2.33;90.63
46944;BME280;32678;43.852;25.952;2023-01-30T06:12:21;101491.00;;;2.48;90.00
46944;BME280;32678;43.852;25.952;2023-01-30T06:17:19;101494.31;;;2.40;90.21
46944;BME280;32678;43.852;25.952;2023-01-30T06:22:15;101490.00;;;2.40;89.74
46944;BME280;32678;43.852;25.952;2023-01-30T06:27:12;101496.25;;;2.57;88.53
46944;BME280;32678;43.852;25.952;2023-01-30T06:32:09;101485.88;;;2.56;88.79
46944;BME280;32678;43.852;25.952;2023-01-30T06:37:07;101483.09;;;2.38;88.51
46944;BME280;32678;43.852;25.952;2023-01-30T06:42:04;101489.16;;;2.41;88.66
46944;BME280;32678;43.852;25.952;2023-01-30T06:47:03;101482.19;;;2.36;88.48
46944;BME280;32678;43.852;25.952;2023-01-30T06:52:00;101496.59;;;2.15;90.01
46944;BME280;32678;43.852;25.952;2023-01-30T06:56:58;101487.97;;;2.13;90.19
46944;BME280;32678;43.852;25.952;2023-01-30T07:01:54;101494.22;;;2.29;89.63
46944;BME280;32678;43.852;25.952;2023-01-30T07:06:51;101504.63;;;2.34;89.51
46944;BME280;32678;43.852;25.952;2023-01-30T07:11:48;101509.06;;;2.47;89.92
46944;BME280;32678;43.852;25.952;2023-01-30T07:16:46;101503.06;;;2.49;88.65
46944;BME280;32678;43.852;25.952;2023-01-30T07:21:43;101515.22;;;2.53;89.11
46944;BME280;32678;43.852;25.952;2023-01-30T07:26:40;101501.38;;;2.54;89.57
46944;BME280;32678;43.852;25.952;2023-01-30T07:31:39;101501.38;;;2.54;89.86
46944;BME280;32678;43.852;25.952;2023-01-30T07:36:38;101510.97;;;2.61;89.13
46944;BME280;32678;43.852;25.952;2023-01-30T09:31:45;101416.13;;;3.87;85.74
46944;BME280;32678;43.852;25.952;2023-01-30T09:36:56;101435.97;;;3.79;85.28
46944;BME280;32678;43.852;25.952;2023-01-30T09:43:18;101422.91;;;3.63;85.70
46944;BME280;32678;43.852;25.952;2023-01-30T09:48:21;101424.63;;;3.62;86.35
46944;BME280;32678;43.852;25.952;2023-01-30T09:53:21;101405.53;;;3.48;86.18
46944;BME280;32678;43.852;25.952;2023-01-30T09:58:20;101401.25;;;3.55;85.85
46944;BME280;32678;43.852;25.952;2023-01-30T10:03:18;101395.13;;;3.43;85.96
46944;BME280;32678;43.852;25.952;2023-01-30T10:13:40;101364.94;;;3.52;85.92
46944;BME280;32678;43.852;25.952;2023-01-30T10:18:45;101362.16;;;3.20;85.10
46944;BME280;32678;43.852;25.952;2023-01-30T10:23:54;101351.88;;;3.35;85.90
46944;BME280;32678;43.852;25.952;2023-01-30T10:28:59;101343.34;;;3.51;85.43
46944;BME280;32678;43.852;25.952;2023-01-30T10:34:03;101342.44;;;3.46;84.02
46944;BME280;32678;43.852;25.952;2023-01-30T10:39:02;101340.63;;;3.30;83.36
46944;BME280;32678;43.852;25.952;2023-01-30T10:44:01;101338.44;;;2.67;84.52
46944;BME280;32678;43.852;25.952;2023-01-30T10:48:59;101325.13;;;2.27;88.31
46944;BME280;32678;43.852;25.952;2023-01-30T10:53:59;101289.88;;;2.40;88.52
46944;BME280;32678;43.852;25.952;2023-01-30T10:58:59;101304.84;;;2.79;87.67
46944;BME280;32678;43.852;25.952;2023-01-30T11:04:03;101290.00;;;2.52;85.13
46944;BME280;32678;43.852;25.952;2023-01-30T11:09:05;101280.16;;;2.13;86.76
46944;BME280;32678;43.852;25.952;2023-01-30T11:14:07;101277.91;;;1.63;89.30
46944;BME280;32678;43.852;25.952;2023-01-30T11:19:05;101265.72;;;1.53;90.36
46944;BME280;32678;43.852;25.952;2023-01-30T11:24:18;101249.25;;;1.44;90.71
46944;BME280;32678;43.852;25.952;2023-01-30T11:29:23;101226.09;;;1.54;89.50
46944;BME280;32678;43.852;25.952;2023-01-30T11:34:21;101244.53;;;1.86;91.63
46944;BME280;32678;43.852;25.952;2023-01-30T11:39:20;101233.63;;;2.16;90.20
46944;BME280;32678;43.852;25.952;2023-01-30T11:44:22;101242.50;;;2.44;87.26
46944;BME280;32678;43.852;25.952;2023-01-30T11:49:24;101238.59;;;1.96;86.17
46944;BME280;32678;43.852;25.952;2023-01-30T11:54:44;101236.00;;;1.96;88.29
46944;BME280;32678;43.852;25.952;2023-01-30T11:59:42;101215.59;;;2.27;88.26
46944;BME280;32678;43.852;25.952;2023-01-30T12:04:50;101208.97;;;2.62;86.63
46944;BME280;32678;43.852;25.952;2023-01-30T12:09:54;101196.84;;;2.59;85.58
46944;BME280;32678;43.852;25.952;2023-01-30T12:15:04;101189.66;;;2.17;85.00
46944;BME280;32678;43.852;25.952;2023-01-30T12:20:18;101188.81;;;2.18;85.80
46944;BME280;32678;43.852;25.952;2023-01-30T12:25:22;101185.56;;;2.44;83.95
46944;BME280;32678;43.852;25.952;2023-01-30T12:30:24;101181.19;;;2.37;86.23
46944;BME280;32678;43.852;25.952;2023-01-30T12:35:23;101175.22;;;2.44;83.88
46944;BME280;32678;43.852;25.952;2023-01-30T12:40:27;101167.44;;;2.47;85.84
46944;BME280;32678;43.852;25.952;2023-01-30T12:45:30;101165.91;;;2.73;85.64
46944;BME280;32678;43.852;25.952;2023-01-30T12:50:35;101164.66;;;2.15;84.21
46944;BME280;32678;43.852;25.952;2023-01-30T12:55:39;101150.91;;;2.24;86.66
46944;BME280;32678;43.852;25.952;2023-01-30T13:00:42;101115.66;;;2.41;86.71
46944;BME280;32678;43.852;25.952;2023-01-30T13:16:35;101110.72;;;2.98;84.75
46944;BME280;32678;43.852;25.952;2023-01-30T13:22:00;101117.69;;;3.10;83.30
46944;BME280;32678;43.852;25.952;2023-01-30T13:26:59;101115.72;;;2.54;84.44
46944;BME280;32678;43.852;25.952;2023-01-30T13:32:51;101109.56;;;2.31;86.28
46944;BME280;32678;43.852;25.952;2023-01-30T13:37:54;101094.06;;;2.36;86.89
46944;BME280;32678;43.852;25.952;2023-01-30T13:42:59;101088.19;;;2.67;88.17
46944;BME280;32678;43.852;25.952;2023-01-30T13:48:48;101094.31;;;2.90;86.59
46944;BME280;32678;43.852;25.952;2023-01-30T14:00:38;101077.13;;;3.23;84.67
46944;BME280;32678;43.852;25.952;2023-01-30T14:10:52;101070.09;;;2.75;84.89
46944;BME280;32678;43.852;25.952;2023-01-30T14:15:52;101067.53;;;2.85;87.53
46944;BME280;32678;43.852;25.952;2023-01-30T14:20:50;101071.78;;;2.70;89.47
46944;BME280;32678;43.852;25.952;2023-01-30T14:25:47;101063.13;;;2.57;91.68
46944;BME280;32678;43.852;25.952;2023-01-30T14:30:45;101059.66;;;2.52;93.68
46944;BME280;32678;43.852;25.952;2023-01-30T14:35:42;101047.56;;;2.55;92.67
46944;BME280;32678;43.852;25.952;2023-01-30T14:40:46;101042.34;;;2.46;93.06
46944;BME280;32678;43.852;25.952;2023-01-30T14:52:24;101028.59;;;2.49;92.32
46944;BME280;32678;43.852;25.952;2023-01-30T14:57:26;101005.22;;;2.37;92.49
46944;BME280;32678;43.852;25.952;2023-01-30T15:02:27;101019.06;;;2.42;93.39
46944;BME280;32678;43.852;25.952;2023-01-30T15:07:28;100988.84;;;2.33;92.07
46944;BME280;32678;43.852;25.952;2023-01-30T15:12:30;101011.34;;;2.54;91.33
46944;BME280;32678;43.852;25.952;2023-01-30T15:17:35;101009.59;;;2.48;91.41
46944;BME280;32678;43.852;25.952;2023-01-30T15:28:10;100999.28;;;2.62;90.39
46944;BME280;32678;43.852;25.952;2023-01-30T15:33:13;100983.72;;;2.53;91.04
46944;BME280;32678;43.852;25.952;2023-01-30T15:38:23;100979.44;;;2.64;90.62
46944;BME280;32678;43.852;25.952;2023-01-30T15:43:25;100982.03;;;2.64;90.61
46944;BME280;32678;43.852;25.952;2023-01-30T15:48:36;100976.91;;;2.88;89.14
46944;BME280;32678;43.852;25.952;2023-01-30T15:53:39;100971.72;;;2.76;89.51
46944;BME280;32678;43.852;25.952;2023-01-30T15:58:39;100970.81;;;2.60;89.53
46944;BME280;32678;43.852;25.952;2023-01-30T16:03:38;100969.09;;;2.70;88.92
46944;BME280;32678;43.852;25.952;2023-01-30T16:08:39;100954.47;;;2.78;89.62
46944;BME280;32678;43.852;25.952;2023-01-30T16:13:36;100953.53;;;2.64;89.20
46944;BME280;32678;43.852;25.952;2023-01-30T16:18:35;100957.06;;;2.78;89.10
46944;BME280;32678;43.852;25.952;2023-01-30T16:23:42;100944.06;;;2.69;89.22
46944;BME280;32678;43.852;25.952;2023-01-30T16:28:48;100942.38;;;2.80;88.54
46944;BME280;32678;43.852;25.952;2023-01-30T16:33:48;100941.47;;;2.66;89.08
46944;BME280;32678;43.852;25.952;2023-01-30T16:38:46;100941.50;;;2.84;88.52
46944;BME280;32678;43.852;25.952;2023-01-30T16:43:43;100928.56;;;2.89;88.56
46944;BME280;32678;43.852;25.952;2023-01-30T16:48:40;100928.59;;;3.01;88.11
46944;BME280;32678;43.852;25.952;2023-01-30T16:53:43;100923.41;;;2.87;87.74
46944;BME280;32678;43.852;25.952;2023-01-30T16:58:44;100907.00;;;2.85;87.84
46944;BME280;32678;43.852;25.952;2023-01-30T17:03:47;100913.03;;;2.84;85.51
46944;BME280;32678;43.852;25.952;2023-01-30T17:08:49;100905.25;;;2.54;83.80
46944;BME280;32678;43.852;25.952;2023-01-30T17:13:49;100906.03;;;2.35;83.71
46944;BME280;32678;43.852;25.952;2023-01-30T17:19:07;100897.38;;;2.19;83.24
46944;BME280;32678;43.852;25.952;2023-01-30T17:24:05;100901.69;;;2.18;82.43
46944;BME280;32678;43.852;25.952;2023-01-30T17:29:03;100890.50;;;2.27;81.03
46944;BME280;32678;43.852;25.952;2023-01-30T17:34:01;100888.66;;;1.96;81.52
46944;BME280;32678;43.852;25.952;2023-01-30T17:38:58;100881.72;;;1.87;82.17
46944;BME280;32678;43.852;25.952;2023-01-30T17:43:58;100886.91;;;1.89;83.10
46944;BME280;32678;43.852;25.952;2023-01-30T17:48:59;100874.84;;;1.92;84.16
46944;BME280;32678;43.852;25.952;2023-01-30T17:53:56;100864.53;;;1.95;83.97
46944;BME280;32678;43.852;25.952;2023-01-30T17:58:58;100867.09;;;1.92;83.72
46944;BME280;32678;43.852;25.952;2023-01-30T18:09:40;100858.41;;;1.78;83.35
46944;BME280;32678;43.852;25.952;2023-01-30T18:14:37;100846.44;;;1.95;82.25
46944;BME280;32678;43.852;25.952;2023-01-30T18:19:35;100842.03;;;1.76;82.51
46944;BME280;32678;43.852;25.952;2023-01-30T18:24:31;100842.81;;;1.54;82.76
46944;BME280;32678;43.852;25.952;2023-01-30T18:29:29;100840.28;;;1.66;82.53
46944;BME280;32678;43.852;25.952;2023-01-30T18:34:26;100813.41;;;1.34;82.20
46944;BME280;32678;43.852;25.952;2023-01-30T18:39:23;100829.00;;;1.53;82.90
46944;BME280;32678;43.852;25.952;2023-01-30T18:44:29;100828.19;;;1.62;82.22
46944;BME280;32678;43.852;25.952;2023-01-30T18:49:28;100839.41;;;1.61;82.76
46944;BME280;32678;43.852;25.952;2023-01-30T18:54:26;100829.88;;;1.52;83.27
46944;BME280;32678;43.852;25.952;2023-01-30T18:59:25;100823.00;;;1.51;81.93
46944;BME280;32678;43.852;25.952;2023-01-30T19:04:24;100825.59;;;1.62;82.52
46944;BME280;32678;43.852;25.952;2023-01-30T19:09:20;100819.50;;;1.42;82.12
46944;BME280;32678;43.852;25.952;2023-01-30T19:14:18;100813.53;;;1.55;81.46
46944;BME280;32678;43.852;25.952;2023-01-30T19:19:15;100808.44;;;1.73;80.77
46944;BME280;32678;43.852;25.952;2023-01-30T19:24:12;100801.53;;;1.70;80.38
46944;BME280;32678;43.852;25.952;2023-01-30T19:29:09;100799.75;;;1.56;80.90
46944;BME280;32678;43.852;25.952;2023-01-30T19:34:06;100796.22;;;1.36;81.57
46944;BME280;32678;43.852;25.952;2023-01-30T19:39:03;100775.63;;;1.51;80.54
46944;BME280;32678;43.852;25.952;2023-01-30T19:44:01;100777.22;;;1.24;81.65
46944;BME280;32678;43.852;25.952;2023-01-30T19:48:58;100795.47;;;1.61;80.96
46944;BME280;32678;43.852;25.952;2023-01-30T19:53:56;100784.16;;;1.38;81.42
46944;BME280;32678;43.852;25.952;2023-01-30T19:58:54;100785.81;;;1.25;81.77
46944;BME280;32678;43.852;25.952;2023-01-30T20:03:53;100784.25;;;1.56;80.74
46944;BME280;32678;43.852;25.952;2023-01-30T20:08:52;100775.72;;;1.78;79.75
46944;BME280;32678;43.852;25.952;2023-01-30T20:13:49;100770.50;;;1.60;79.91
46944;BME280;32678;43.852;25.952;2023-01-30T20:18:47;100764.50;;;1.79;79.16
46944;BME280;32678;43.852;25.952;2023-01-30T20:23:43;100765.34;;;1.64;80.00
46944;BME280;32678;43.852;25.952;2023-01-30T20:28:40;100762.78;;;1.75;79.60
46944;BME280;32678;43.852;25.952;2023-01-30T20:33:38;100755.00;;;1.67;80.04
46944;BME280;32678;43.852;25.952;2023-01-30T20:38:45;100749.00;;;1.78;79.55
46944;BME280;32678;43.852;25.952;2023-01-30T20:43:42;100735.19;;;1.69;79.70
46944;BME280;32678;43.852;25.952;2023-01-30T20:48:41;100727.44;;;1.74;78.07
46944;BME280;32678;43.852;25.952;2023-01-30T20:53:38;100724.81;;;1.62;77.80
46944;BME280;32678;43.852;25.952;2023-01-30T20:58:35;100721.34;;;1.49;78.43
46944;BME280;32678;43.852;25.952;2023-01-30T21:03:32;100717.06;;;1.54;79.27
46944;BME280;32678;43.852;25.952;2023-01-30T21:08:29;100717.94;;;1.56;80.21
46944;BME280;32678;43.852;25.952;2023-01-30T21:13:26;100707.59;;;1.67;79.22
46944;BME280;32678;43.852;25.952;2023-01-30T21:18:23;100707.63;;;1.65;78.90
46944;BME280;32678;43.852;25.952;2023-01-30T21:23:20;100702.44;;;1.64;80.24
46944;BME280;32678;43.852;25.952;2023-01-30T21:28:17;100708.47;;;1.72;80.15
46944;BME280;32678;43.852;25.952;2023-01-30T21:33:14;100700.75;;;1.66;81.46
46944;BME280;32678;43.852;25.952;2023-01-30T21:38:11;100693.88;;;1.85;81.00
46944;BME280;32678;43.852;25.952;2023-01-30T21:43:26;100685.25;;;1.84;81.15
46944;BME280;32678;43.852;25.952;2023-01-30T21:48:23;100683.50;;;1.68;80.48
46944;BME280;32678;43.852;25.952;2023-01-30T21:53:20;100679.22;;;1.70;80.75
46944;BME280;32678;43.852;25.952;2023-01-30T21:58:16;100679.22;;;1.79;79.45
46944;BME280;32678;43.852;25.952;2023-01-30T22:03:14;100681.81;;;1.88;79.43
46944;BME280;32678;43.852;25.952;2023-01-30T22:08:11;100680.94;;;1.83;79.90
46944;BME280;32678;43.852;25.952;2023-01-30T22:13:07;100663.72;;;1.93;79.36
46944;BME280;32678;43.852;25.952;2023-01-30T22:18:04;100674.06;;;1.94;79.73
46944;BME280;32678;43.852;25.952;2023-01-30T22:23:01;100671.47;;;1.99;79.74
46944;BME280;32678;43.852;25.952;2023-01-30T22:27:58;100670.59;;;2.01;79.25
46944;BME280;32678;43.852;25.952;2023-01-30T22:32:55;100674.06;;;2.02;79.58
46944;BME280;32678;43.852;25.952;2023-01-30T22:37:51;100662.88;;;2.00;81.09
46944;BME280;32678;43.852;25.952;2023-01-30T22:42:49;100663.72;;;2.18;79.51
46944;BME280;32678;43.852;25.952;2023-01-30T22:47:45;100660.28;;;2.03;79.67
46944;BME280;32678;43.852;25.952;2023-01-30T22:52:42;100662.88;;;2.09;79.32
46944;BME280;32678;43.852;25.952;2023-01-30T22:57:39;100658.53;;;2.20;78.69
46944;BME280;32678;43.852;25.952;2023-01-30T23:02:36;100655.97;;;2.09;79.55
46944;BME280;32678;43.852;25.952;2023-01-30T23:07:33;100645.59;;;2.12;79.12
46944;BME280;32678;43.852;25.952;2023-01-30T23:12:30;100641.31;;;2.07;79.35
46944;BME280;32678;43.852;25.952;2023-01-30T23:17:45;100643.91;;;1.99;79.44
46944;BME280;32678;43.852;25.952;2023-01-30T23:23:00;100631.81;;;1.82;80.47
46944;BME280;32678;43.852;25.952;2023-01-30T23:27:58;100639.56;;;2.06;78.88
46944;BME280;32678;43.852;25.952;2023-01-30T23:32:55;100626.66;;;1.97;79.86
46944;BME280;32678;43.852;25.952;2023-01-30T23:37:53;100620.59;;;1.96;79.69
46944;BME280;32678;43.852;25.952;2023-01-30T23:43:08;100615.47;;;2.10;78.95
46944;BME280;32678;43.852;25.952;2023-01-30T23:48:06;100622.34;;;2.12;78.67
46944;BME280;32678;43.852;25.952;2023-01-30T23:53:03;100614.56;;;2.12;78.65
46944;BME280;32678;43.852;25.952;2023-01-30T23:58:00;100618.00;;;2.21;79.10
